Aeroporto :
LOGIN :

Iscrizione | Disclaimer

   EN    FR    IT 

 










Sommario :    VFR   VFR Marginale   IFR   IFR Intensivo   IFR Molto Intensivo
Visibilità : 
Base nubi : 
>= 8 km
>= 3000ft
5 / 8 km
1000 / 3000 ft
1500m / 5 km
500 / 1000 ft
800 / 1500m
200 / 500 ft
< 800m
< 200 ft
Simboli :   Temporali  Nebbia  Neve Forte  Precipitazioni Forti  Vento > 20 kt
SIGMETs :   Varie  Temporali  Ghiacco  Turbolenza  Onda orograficha  Ceneri Vulcaniche






- Altitudine del aeroporto : 465 ft


ENFB - Statfjord B Platform

ULTIMO METAR :
  • 240550Z AUTO 27035KT 9999NDV FEW032/// 06/00 Q1006 W///S6

METARs OBSOLETI :
  • 240520Z AUTO 27034KT 9999NDV -SHRA BKN026/// 06/00 Q1006 W///S6
  • 240450Z AUTO 26034KT 9999NDV BKN025/// 06/02 Q1006 W///S6
  • 240420Z AUTO 26037KT 9999NDV FEW016/// BKN027/// BKN078/// 06/01 Q1006 W///S6
  • 240350Z AUTO 26032KT 9999NDV -SHRA SCT023/// SCT058/// 05/02 Q1007 W///S6
  • 240320Z AUTO 27035KT 9999NDV -RA BKN026/// 05/02 Q1007 W///S6

TAF N/A



MetMap, La meteo Aeronautica in un colpo d'occhio ! - Copyright ORBIFLY Dicembre 2007 - Disclaimer

ORBIFLY MET'MAP TEAM :

Programmazione e sviluppo : Alexandra Zaïnal
Concezione : Baudouin d'Aumeries
Aiuto per la programmazione : Marc-Olivier Méhu
Supporto tecnico e logistico : Manuel Goepfert
Aiuto per la traduzione : Arnaldo La Scala

Contatto : metmap@orbifly.com




FONTI E CREDITI :

   NOAA